sensor_id;sensor_type;location;lat;lon;timestamp;pressure;altitude;pressure_sealevel;temperature
24740;BMP280;45234;48.148;17.128;2022-10-16T00:01:47;100289.94;;;14.25
24740;BMP280;45234;48.148;17.128;2022-10-16T00:04:14;100295.63;;;14.16
24740;BMP280;45234;48.148;17.128;2022-10-16T00:06:41;100299.06;;;14.10
24740;BMP280;45234;48.148;17.128;2022-10-16T00:09:08;100293.09;;;14.02
24740;BMP280;45234;48.148;17.128;2022-10-16T00:11:37;100296.31;;;13.98
24740;BMP280;45234;48.148;17.128;2022-10-16T00:14:07;100295.13;;;13.94
24740;BMP280;45234;48.148;17.128;2022-10-16T00:16:34;100290.16;;;13.92
24740;BMP280;45234;48.148;17.128;2022-10-16T00:19:02;100293.78;;;13.91
24740;BMP280;45234;48.148;17.128;2022-10-16T00:21:30;100301.16;;;13.88
24740;BMP280;45234;48.148;17.128;2022-10-16T00:24:16;100304.00;;;13.86
24740;BMP280;45234;48.148;17.128;2022-10-16T00:26:43;100303.63;;;13.83
24740;BMP280;45234;48.148;17.128;2022-10-16T00:29:11;100303.03;;;13.81
24740;BMP280;45234;48.148;17.128;2022-10-16T00:31:38;100304.44;;;13.77
24740;BMP280;45234;48.148;17.128;2022-10-16T00:34:05;100300.44;;;13.74
24740;BMP280;45234;48.148;17.128;2022-10-16T00:36:32;100307.25;;;13.68
24740;BMP280;45234;48.148;17.128;2022-10-16T00:39:02;100309.28;;;13.66
24740;BMP280;45234;48.148;17.128;2022-10-16T00:41:29;100311.28;;;13.64
24740;BMP280;45234;48.148;17.128;2022-10-16T00:43:58;100300.50;;;13.61
24740;BMP280;45234;48.148;17.128;2022-10-16T00:46:35;100310.50;;;13.57
24740;BMP280;45234;48.148;17.128;2022-10-16T00:51:35;100324.16;;;13.53
24740;BMP280;45234;48.148;17.128;2022-10-16T00:54:04;100321.75;;;13.51
24740;BMP280;45234;48.148;17.128;2022-10-16T00:56:34;100325.38;;;13.50
24740;BMP280;45234;48.148;17.128;2022-10-16T00:59:03;100331.97;;;13.46
24740;BMP280;45234;48.148;17.128;2022-10-16T01:01:33;100324.56;;;13.43
24740;BMP280;45234;48.148;17.128;2022-10-16T01:04:00;100325.19;;;13.39
24740;BMP280;45234;48.148;17.128;2022-10-16T01:07:04;100326.38;;;13.36
24740;BMP280;45234;48.148;17.128;2022-10-16T01:09:28;100333.00;;;13.32
24740;BMP280;45234;48.148;17.128;2022-10-16T01:12:08;100333.81;;;13.32
24740;BMP280;45234;48.148;17.128;2022-10-16T01:14:40;100341.81;;;13.31
24740;BMP280;45234;48.148;17.128;2022-10-16T01:17:31;100335.81;;;13.30
24740;BMP280;45234;48.148;17.128;2022-10-16T01:22:38;100334.44;;;13.28
24740;BMP280;45234;48.148;17.128;2022-10-16T01:28:02;100337.03;;;13.28
24740;BMP280;45234;48.148;17.128;2022-10-16T01:30:31;100325.19;;;13.25
24740;BMP280;45234;48.148;17.128;2022-10-16T01:33:35;100323.41;;;13.26
24740;BMP280;45234;48.148;17.128;2022-10-16T01:36:05;100323.78;;;13.23
24740;BMP280;45234;48.148;17.128;2022-10-16T01:38:36;100326.63;;;13.21
24740;BMP280;45234;48.148;17.128;2022-10-16T01:41:09;100329.44;;;13.20
24740;BMP280;45234;48.148;17.128;2022-10-16T01:43:42;100325.44;;;13.17
24740;BMP280;45234;48.148;17.128;2022-10-16T01:46:11;100335.44;;;13.14
24740;BMP280;45234;48.148;17.128;2022-10-16T01:48:40;100346.03;;;13.06
24740;BMP280;45234;48.148;17.128;2022-10-16T01:51:14;100354.03;;;13.04
24740;BMP280;45234;48.148;17.128;2022-10-16T01:53:43;100349.06;;;13.02
24740;BMP280;45234;48.148;17.128;2022-10-16T01:56:12;100352.66;;;13.01
24740;BMP280;45234;48.148;17.128;2022-10-16T01:58:42;100346.66;;;13.01
24740;BMP280;45234;48.148;17.128;2022-10-16T02:01:12;100349.06;;;13.02
24740;BMP280;45234;48.148;17.128;2022-10-16T02:03:42;100351.06;;;13.00
24740;BMP280;45234;48.148;17.128;2022-10-16T02:06:10;100356.66;;;13.04
24740;BMP280;45234;48.148;17.128;2022-10-16T02:08:38;100353.22;;;13.03
24740;BMP280;45234;48.148;17.128;2022-10-16T02:11:07;100343.84;;;13.02
24740;BMP280;45234;48.148;17.128;2022-10-16T02:16:04;100346.66;;;12.94
24740;BMP280;45234;48.148;17.128;2022-10-16T02:18:34;100344.66;;;12.96
24740;BMP280;45234;48.148;17.128;2022-10-16T02:21:04;100335.44;;;12.94
24740;BMP280;45234;48.148;17.128;2022-10-16T02:23:37;100339.44;;;12.90
24740;BMP280;45234;48.148;17.128;2022-10-16T02:26:11;100347.03;;;12.91
24740;BMP280;45234;48.148;17.128;2022-10-16T02:28:43;100347.66;;;12.93
24740;BMP280;45234;48.148;17.128;2022-10-16T02:31:13;100345.25;;;12.98
24740;BMP280;45234;48.148;17.128;2022-10-16T02:33:41;100354.28;;;13.02
24740;BMP280;45234;48.148;17.128;2022-10-16T02:36:09;100341.81;;;13.05
24740;BMP280;45234;48.148;17.128;2022-10-16T02:38:37;100349.06;;;13.02
24740;BMP280;45234;48.148;17.128;2022-10-16T02:41:06;100344.63;;;13.03
24740;BMP280;45234;48.148;17.128;2022-10-16T02:43:33;100345.44;;;13.03
24740;BMP280;45234;48.148;17.128;2022-10-16T02:46:01;100354.28;;;13.02
24740;BMP280;45234;48.148;17.128;2022-10-16T02:48:29;100360.69;;;13.07
24740;BMP280;45234;48.148;17.128;2022-10-16T02:50:56;100367.69;;;13.06
24740;BMP280;45234;48.148;17.128;2022-10-16T02:53:26;100361.06;;;13.10
24740;BMP280;45234;48.148;17.128;2022-10-16T02:55:54;100367.47;;;13.14
24740;BMP280;45234;48.148;17.128;2022-10-16T02:58:21;100364.06;;;13.14
24740;BMP280;45234;48.148;17.128;2022-10-16T03:00:48;100356.25;;;13.14
24740;BMP280;45234;48.148;17.128;2022-10-16T03:03:15;100358.25;;;13.12
24740;BMP280;45234;48.148;17.128;2022-10-16T03:05:43;100356.25;;;13.14
24740;BMP280;45234;48.148;17.128;2022-10-16T03:08:13;100351.25;;;13.19
24740;BMP280;45234;48.148;17.128;2022-10-16T03:10:40;100352.22;;;13.24
24740;BMP280;45234;48.148;17.128;2022-10-16T03:13:08;100361.66;;;13.25
24740;BMP280;45234;48.148;17.128;2022-10-16T03:15:36;100363.44;;;13.25
24740;BMP280;45234;48.148;17.128;2022-10-16T03:18:03;100369.25;;;13.27
24740;BMP280;45234;48.148;17.128;2022-10-16T03:20:30;100368.44;;;13.26
24740;BMP280;45234;48.148;17.128;2022-10-16T03:22:58;100384.28;;;13.25
24740;BMP280;45234;48.148;17.128;2022-10-16T03:25:25;100375.47;;;13.26
24740;BMP280;45234;48.148;17.128;2022-10-16T03:27:53;100378.47;;;13.29
24740;BMP280;45234;48.148;17.128;2022-10-16T03:30:21;100376.09;;;13.28
24740;BMP280;45234;48.148;17.128;2022-10-16T03:32:48;100385.72;;;13.27
24740;BMP280;45234;48.148;17.128;2022-10-16T03:35:17;100393.88;;;13.37
24740;BMP280;45234;48.148;17.128;2022-10-16T03:37:43;100395.66;;;13.37
24740;BMP280;45234;48.148;17.128;2022-10-16T03:40:11;100391.47;;;13.36
24740;BMP280;45234;48.148;17.128;2022-10-16T03:42:38;100399.91;;;13.38
24740;BMP280;45234;48.148;17.128;2022-10-16T03:45:06;100404.72;;;13.41
24740;BMP280;45234;48.148;17.128;2022-10-16T03:47:34;100396.69;;;13.43
24740;BMP280;45234;48.148;17.128;2022-10-16T03:50:02;100403.91;;;13.41
24740;BMP280;45234;48.148;17.128;2022-10-16T03:52:30;100409.69;;;13.36
24740;BMP280;45234;48.148;17.128;2022-10-16T03:54:57;100410.50;;;13.30
24740;BMP280;45234;48.148;17.128;2022-10-16T03:57:24;100414.72;;;13.24
24740;BMP280;45234;48.148;17.128;2022-10-16T03:59:52;100423.13;;;13.20
24740;BMP280;45234;48.148;17.128;2022-10-16T04:02:19;100421.13;;;13.15
24740;BMP280;45234;48.148;17.128;2022-10-16T04:04:46;100420.31;;;13.15
24740;BMP280;45234;48.148;17.128;2022-10-16T04:07:14;100422.31;;;13.13
24740;BMP280;45234;48.148;17.128;2022-10-16T04:09:41;100428.13;;;13.15
24740;BMP280;45234;48.148;17.128;2022-10-16T04:12:08;100428.53;;;13.12
24740;BMP280;45234;48.148;17.128;2022-10-16T04:14:36;100429.53;;;13.11
24740;BMP280;45234;48.148;17.128;2022-10-16T04:17:03;100429.53;;;13.11
24740;BMP280;45234;48.148;17.128;2022-10-16T04:19:29;100422.94;;;13.08
24740;BMP280;45234;48.148;17.128;2022-10-16T04:21:57;100433.16;;;13.10
24740;BMP280;45234;48.148;17.128;2022-10-16T04:24:25;100425.94;;;13.12
24740;BMP280;45234;48.148;17.128;2022-10-16T04:26:52;100434.94;;;13.16
24740;BMP280;45234;48.148;17.128;2022-10-16T04:29:20;100429.13;;;13.14
24740;BMP280;45234;48.148;17.128;2022-10-16T04:31:47;100430.31;;;13.11
24740;BMP280;45234;48.148;17.128;2022-10-16T04:34:14;100422.31;;;13.13
24740;BMP280;45234;48.148;17.128;2022-10-16T04:36:41;100426.72;;;13.12
24740;BMP280;45234;48.148;17.128;2022-10-16T04:39:09;100432.72;;;13.13
24740;BMP280;45234;48.148;17.128;2022-10-16T04:41:36;100437.94;;;13.13
24740;BMP280;45234;48.148;17.128;2022-10-16T04:44:04;100437.94;;;13.13
24740;BMP280;45234;48.148;17.128;2022-10-16T04:46:31;100438.94;;;13.12
24740;BMP280;45234;48.148;17.128;2022-10-16T04:48:59;100437.94;;;13.06
24740;BMP280;45234;48.148;17.128;2022-10-16T04:51:27;100432.91;;;13.05
24740;BMP280;45234;48.148;17.128;2022-10-16T04:53:54;100447.16;;;13.02
24740;BMP280;45234;48.148;17.128;2022-10-16T04:56:22;100445.75;;;12.99
24740;BMP280;45234;48.148;17.128;2022-10-16T04:58:51;100445.53;;;12.94
24740;BMP280;45234;48.148;17.128;2022-10-16T05:01:43;100449.94;;;12.87
24740;BMP280;45234;48.148;17.128;2022-10-16T05:04:11;100452.72;;;12.86
24740;BMP280;45234;48.148;17.128;2022-10-16T05:06:38;100446.72;;;12.85
24740;BMP280;45234;48.148;17.128;2022-10-16T05:09:06;100442.28;;;12.79
24740;BMP280;45234;48.148;17.128;2022-10-16T05:11:57;100449.72;;;12.76
24740;BMP280;45234;48.148;17.128;2022-10-16T05:14:24;100445.66;;;12.73
24740;BMP280;45234;48.148;17.128;2022-10-16T05:16:51;100448.66;;;12.70
24740;BMP280;45234;48.148;17.128;2022-10-16T05:19:18;100458.66;;;12.73
24740;BMP280;45234;48.148;17.128;2022-10-16T05:21:54;100456.88;;;12.74
24740;BMP280;45234;48.148;17.128;2022-10-16T05:24:21;100463.06;;;12.66
24740;BMP280;45234;48.148;17.128;2022-10-16T05:27:34;100457.88;;;12.66
24740;BMP280;45234;48.148;17.128;2022-10-16T05:30:00;100461.47;;;12.72
24740;BMP280;45234;48.148;17.128;2022-10-16T05:32:28;100469.25;;;12.65
24740;BMP280;45234;48.148;17.128;2022-10-16T05:34:55;100477.06;;;12.65
24740;BMP280;45234;48.148;17.128;2022-10-16T05:37:23;100480.28;;;12.67
24740;BMP280;45234;48.148;17.128;2022-10-16T05:39:50;100471.47;;;12.68
24740;BMP280;45234;48.148;17.128;2022-10-16T05:42:21;100477.53;;;12.75
24740;BMP280;45234;48.148;17.128;2022-10-16T05:44:48;100479.91;;;12.77
24740;BMP280;45234;48.148;17.128;2022-10-16T05:47:15;100486.94;;;12.83
24740;BMP280;45234;48.148;17.128;2022-10-16T05:49:47;100483.78;;;13.00
24740;BMP280;45234;48.148;17.128;2022-10-16T05:52:14;100495.00;;;13.14
24740;BMP280;45234;48.148;17.128;2022-10-16T05:54:41;100496.44;;;13.30
24740;BMP280;45234;48.148;17.128;2022-10-16T05:57:08;100496.84;;;13.40
24740;BMP280;45234;48.148;17.128;2022-10-16T05:59:36;100504.66;;;13.53
24740;BMP280;45234;48.148;17.128;2022-10-16T06:02:03;100516.09;;;13.65
24740;BMP280;45234;48.148;17.128;2022-10-16T06:04:31;100516.88;;;13.73
24740;BMP280;45234;48.148;17.128;2022-10-16T06:06:58;100519.28;;;13.67
24740;BMP280;45234;48.148;17.128;2022-10-16T06:09:29;100528.47;;;13.90
24740;BMP280;45234;48.148;17.128;2022-10-16T06:11:56;100540.53;;;14.04
24740;BMP280;45234;48.148;17.128;2022-10-16T06:14:24;100538.06;;;14.22
24740;BMP280;45234;48.148;17.128;2022-10-16T06:16:52;100538.25;;;14.34
24740;BMP280;45234;48.148;17.128;2022-10-16T06:19:20;100539.56;;;14.56
24740;BMP280;45234;48.148;17.128;2022-10-16T06:21:47;100538.09;;;14.67
24740;BMP280;45234;48.148;17.128;2022-10-16T06:24:14;100545.38;;;14.96
24740;BMP280;45234;48.148;17.128;2022-10-16T06:27:07;100547.34;;;15.07
24740;BMP280;45234;48.148;17.128;2022-10-16T06:29:35;100552.03;;;15.24
24740;BMP280;45234;48.148;17.128;2022-10-16T06:32:02;100540.91;;;15.60
24740;BMP280;45234;48.148;17.128;2022-10-16T06:34:31;100548.41;;;15.56
24740;BMP280;45234;48.148;17.128;2022-10-16T06:36:58;100556.81;;;15.83
24740;BMP280;45234;48.148;17.128;2022-10-16T06:39:26;100553.31;;;15.71
24740;BMP280;45234;48.148;17.128;2022-10-16T06:41:53;100556.06;;;15.76
24740;BMP280;45234;48.148;17.128;2022-10-16T06:44:23;100561.97;;;16.08
24740;BMP280;45234;48.148;17.128;2022-10-16T06:46:50;100570.72;;;16.20
24740;BMP280;45234;48.148;17.128;2022-10-16T06:49:17;100572.66;;;16.06
24740;BMP280;45234;48.148;17.128;2022-10-16T06:51:49;100565.19;;;16.10
24740;BMP280;45234;48.148;17.128;2022-10-16T06:54:16;100577.97;;;16.00
24740;BMP280;45234;48.148;17.128;2022-10-16T06:56:44;100580.16;;;16.03
24740;BMP280;45234;48.148;17.128;2022-10-16T06:59:11;100586.63;;;16.18
24740;BMP280;45234;48.148;17.128;2022-10-16T07:02:02;100585.41;;;16.57
24740;BMP280;45234;48.148;17.128;2022-10-16T07:04:30;100593.25;;;16.57
24740;BMP280;45234;48.148;17.128;2022-10-16T07:06:57;100594.19;;;16.75
24740;BMP280;45234;48.148;17.128;2022-10-16T07:09:31;100598.59;;;16.63
24740;BMP280;45234;48.148;17.128;2022-10-16T07:11:59;100604.44;;;16.94
24740;BMP280;45234;48.148;17.128;2022-10-16T07:14:29;100604.47;;;17.06
24740;BMP280;45234;48.148;17.128;2022-10-16T07:16:57;100616.03;;;17.28
24740;BMP280;45234;48.148;17.128;2022-10-16T07:19:24;100615.97;;;17.47
24740;BMP280;45234;48.148;17.128;2022-10-16T07:21:56;100610.97;;;17.57
24740;BMP280;45234;48.148;17.128;2022-10-16T07:24:25;100613.03;;;17.78
24740;BMP280;45234;48.148;17.128;2022-10-16T07:26:52;100613.34;;;17.70
24740;BMP280;45234;48.148;17.128;2022-10-16T07:29:21;100604.59;;;17.76
24740;BMP280;45234;48.148;17.128;2022-10-16T07:31:48;100607.47;;;17.63
24740;BMP280;45234;48.148;17.128;2022-10-16T07:34:17;100611.34;;;17.84
24740;BMP280;45234;48.148;17.128;2022-10-16T07:36:47;100617.25;;;18.02
24740;BMP280;45234;48.148;17.128;2022-10-16T07:39:14;100613.50;;;18.50
24740;BMP280;45234;48.148;17.128;2022-10-16T07:41:41;100609.00;;;18.22
24740;BMP280;45234;48.148;17.128;2022-10-16T07:44:11;100617.16;;;17.74
24740;BMP280;45234;48.148;17.128;2022-10-16T07:46:38;100612.78;;;17.91
24740;BMP280;45234;48.148;17.128;2022-10-16T07:49:05;100618.66;;;17.93
24740;BMP280;45234;48.148;17.128;2022-10-16T07:51:32;100618.44;;;18.23
24740;BMP280;45234;48.148;17.128;2022-10-16T07:54:01;100619.00;;;18.48
24740;BMP280;45234;48.148;17.128;2022-10-16T07:56:30;100628.69;;;18.48
24740;BMP280;45234;48.148;17.128;2022-10-16T07:58:57;100632.06;;;18.60
24740;BMP280;45234;48.148;17.128;2022-10-16T08:01:24;100634.38;;;18.85
24740;BMP280;45234;48.148;17.128;2022-10-16T08:03:54;100642.56;;;19.17
24740;BMP280;45234;48.148;17.128;2022-10-16T08:06:22;100629.81;;;19.42
24740;BMP280;45234;48.148;17.128;2022-10-16T08:08:54;100631.75;;;19.63
24740;BMP280;45234;48.148;17.128;2022-10-16T08:11:22;100626.63;;;19.74
24740;BMP280;45234;48.148;17.128;2022-10-16T08:13:50;100637.31;;;19.67
24740;BMP280;45234;48.148;17.128;2022-10-16T08:16:17;100629.03;;;19.58
24740;BMP280;45234;48.148;17.128;2022-10-16T08:18:45;100640.25;;;19.71
24740;BMP280;45234;48.148;17.128;2022-10-16T08:21:14;100629.81;;;19.76
24740;BMP280;45234;48.148;17.128;2022-10-16T08:23:47;100632.97;;;19.94
24740;BMP280;45234;48.148;17.128;2022-10-16T08:26:25;100632.97;;;20.16
24740;BMP280;45234;48.148;17.128;2022-10-16T08:28:52;100643.25;;;19.96
24740;BMP280;45234;48.148;17.128;2022-10-16T08:31:20;100646.69;;;19.80
24740;BMP280;45234;48.148;17.128;2022-10-16T08:33:48;100642.22;;;19.80
24740;BMP280;45234;48.148;17.128;2022-10-16T08:36:16;100643.03;;;19.81
24740;BMP280;45234;48.148;17.128;2022-10-16T08:38:47;100652.13;;;19.56
24740;BMP280;45234;48.148;17.128;2022-10-16T08:41:27;100657.81;;;19.32
24740;BMP280;45234;48.148;17.128;2022-10-16T08:44:09;100650.63;;;18.99
24740;BMP280;45234;48.148;17.128;2022-10-16T08:49:37;100659.28;;;18.42
24740;BMP280;45234;48.148;17.128;2022-10-16T08:52:11;100658.38;;;18.13
24740;BMP280;45234;48.148;17.128;2022-10-16T08:54:45;100661.38;;;17.82
24740;BMP280;45234;48.148;17.128;2022-10-16T08:57:16;100659.66;;;17.64
24740;BMP280;45234;48.148;17.128;2022-10-16T08:59:50;100657.03;;;17.64
24740;BMP280;45234;48.148;17.128;2022-10-16T09:07:53;100657.50;;;17.96
24740;BMP280;45234;48.148;17.128;2022-10-16T09:23:30;100669.69;;;18.77
24740;BMP280;45234;48.148;17.128;2022-10-16T09:26:09;100662.94;;;18.81
24740;BMP280;45234;48.148;17.128;2022-10-16T09:28:39;100660.31;;;18.81
24740;BMP280;45234;48.148;17.128;2022-10-16T09:31:11;100656.59;;;18.66
24740;BMP280;45234;48.148;17.128;2022-10-16T09:33:40;100657.56;;;18.48
24740;BMP280;45234;48.148;17.128;2022-10-16T09:36:09;100662.16;;;18.29
24740;BMP280;45234;48.148;17.128;2022-10-16T09:38:36;100667.09;;;18.26
24740;BMP280;45234;48.148;17.128;2022-10-16T09:43:47;100671.50;;;18.37
24740;BMP280;45234;48.148;17.128;2022-10-16T09:49:00;100670.03;;;18.29
24740;BMP280;45234;48.148;17.128;2022-10-16T09:51:32;100679.28;;;18.32
24740;BMP280;45234;48.148;17.128;2022-10-16T09:54:26;100674.34;;;18.35
24740;BMP280;45234;48.148;17.128;2022-10-16T09:57:03;100678.13;;;18.39
24740;BMP280;45234;48.148;17.128;2022-10-16T09:59:31;100685.78;;;18.41
24740;BMP280;45234;48.148;17.128;2022-10-16T10:02:01;100685.97;;;18.51
24740;BMP280;45234;48.148;17.128;2022-10-16T10:07:37;100687.47;;;18.47
24740;BMP280;45234;48.148;17.128;2022-10-16T10:10:05;100685.06;;;18.57
24740;BMP280;45234;48.148;17.128;2022-10-16T10:12:33;100681.41;;;18.58
24740;BMP280;45234;48.148;17.128;2022-10-16T10:15:06;100683.81;;;18.60
24740;BMP280;45234;48.148;17.128;2022-10-16T10:17:44;100678.97;;;18.57
24740;BMP280;45234;48.148;17.128;2022-10-16T10:20:21;100671.81;;;18.52
24740;BMP280;45234;48.148;17.128;2022-10-16T10:22:50;100675.72;;;18.49
24740;BMP280;45234;48.148;17.128;2022-10-16T10:25:21;100669.75;;;18.54
24740;BMP280;45234;48.148;17.128;2022-10-16T10:33:42;100673.56;;;18.75
24740;BMP280;45234;48.148;17.128;2022-10-16T10:39:02;100676.56;;;18.78
24740;BMP280;45234;48.148;17.128;2022-10-16T10:47:04;100653.19;;;18.94
24740;BMP280;45234;48.148;17.128;2022-10-16T10:49:44;100655.63;;;18.83
24740;BMP280;45234;48.148;17.128;2022-10-16T10:55:10;100666.81;;;18.91
24740;BMP280;45234;48.148;17.128;2022-10-16T11:08:41;100672.34;;;19.06
24740;BMP280;45234;48.148;17.128;2022-10-16T11:11:11;100669.13;;;19.04
24740;BMP280;45234;48.148;17.128;2022-10-16T11:13:54;100662.84;;;19.05
24740;BMP280;45234;48.148;17.128;2022-10-16T11:19:12;100651.38;;;19.11
24740;BMP280;45234;48.148;17.128;2022-10-16T11:21:44;100648.31;;;19.14
24740;BMP280;45234;48.148;17.128;2022-10-16T11:26:42;100652.22;;;19.28
24740;BMP280;45234;48.148;17.128;2022-10-16T11:29:13;100654.28;;;19.26
24740;BMP280;45234;48.148;17.128;2022-10-16T11:31:47;100655.06;;;19.26
24740;BMP280;45234;48.148;17.128;2022-10-16T11:39:41;100645.91;;;19.29
24740;BMP280;45234;48.148;17.128;2022-10-16T11:44:42;100640.69;;;19.46
24740;BMP280;45234;48.148;17.128;2022-10-16T11:52:47;100632.94;;;19.39
24740;BMP280;45234;48.148;17.128;2022-10-16T11:55:17;100632.38;;;19.37
24740;BMP280;45234;48.148;17.128;2022-10-16T11:58:14;100634.63;;;19.45
24740;BMP280;45234;48.148;17.128;2022-10-16T12:03:33;100636.75;;;19.48
24740;BMP280;45234;48.148;17.128;2022-10-16T12:08:52;100636.25;;;19.51
24740;BMP280;45234;48.148;17.128;2022-10-16T12:11:43;100638.88;;;19.51
24740;BMP280;45234;48.148;17.128;2022-10-16T12:16:38;100633.19;;;19.54
24740;BMP280;45234;48.148;17.128;2022-10-16T12:19:12;100631.09;;;19.56
24740;BMP280;45234;48.148;17.128;2022-10-16T12:21:39;100631.41;;;19.60
24740;BMP280;45234;48.148;17.128;2022-10-16T12:24:07;100625.44;;;19.64
24740;BMP280;45234;48.148;17.128;2022-10-16T12:26:46;100631.56;;;19.70
24740;BMP280;45234;48.148;17.128;2022-10-16T12:29:28;100629.00;;;19.75
24740;BMP280;45234;48.148;17.128;2022-10-16T12:31:57;100630.84;;;19.75
24740;BMP280;45234;48.148;17.128;2022-10-16T12:34:42;100626.69;;;19.79
24740;BMP280;45234;48.148;17.128;2022-10-16T12:37:14;100621.91;;;19.76
24740;BMP280;45234;48.148;17.128;2022-10-16T12:39:46;100622.50;;;19.83
24740;BMP280;45234;48.148;17.128;2022-10-16T12:42:22;100614.16;;;19.86
24740;BMP280;45234;48.148;17.128;2022-10-16T12:44:51;100617.91;;;19.90
24740;BMP280;45234;48.148;17.128;2022-10-16T12:47:50;100624.66;;;19.86
24740;BMP280;45234;48.148;17.128;2022-10-16T12:50:28;100629.47;;;19.89
24740;BMP280;45234;48.148;17.128;2022-10-16T12:52:58;100626.88;;;19.94
24740;BMP280;45234;48.148;17.128;2022-10-16T12:55:26;100628.25;;;19.96
24740;BMP280;45234;48.148;17.128;2022-10-16T12:58:09;100632.47;;;19.97
24740;BMP280;45234;48.148;17.128;2022-10-16T13:03:44;100630.44;;;20.04
24740;BMP280;45234;48.148;17.128;2022-10-16T13:06:34;100625.75;;;20.07
24740;BMP280;45234;48.148;17.128;2022-10-16T13:09:27;100630.81;;;20.13
24740;BMP280;45234;48.148;17.128;2022-10-16T13:19:42;100641.00;;;20.26
24740;BMP280;45234;48.148;17.128;2022-10-16T13:22:27;100637.31;;;20.27
24740;BMP280;45234;48.148;17.128;2022-10-16T13:25:09;100633.66;;;20.28
24740;BMP280;45234;48.148;17.128;2022-10-16T13:30:45;100635.50;;;20.33
24740;BMP280;45234;48.148;17.128;2022-10-16T13:33:30;100646.38;;;20.36
24740;BMP280;45234;48.148;17.128;2022-10-16T13:35:59;100638.22;;;20.38
24740;BMP280;45234;48.148;17.128;2022-10-16T13:38:29;100640.38;;;20.41
24740;BMP280;45234;48.148;17.128;2022-10-16T13:41:00;100641.72;;;20.43
24740;BMP280;45234;48.148;17.128;2022-10-16T13:43:29;100636.97;;;20.45
24740;BMP280;45234;48.148;17.128;2022-10-16T13:45:59;100637.84;;;20.51
24740;BMP280;45234;48.148;17.128;2022-10-16T13:48:27;100642.91;;;20.58
24740;BMP280;45234;48.148;17.128;2022-10-16T13:51:00;100644.81;;;20.62
24740;BMP280;45234;48.148;17.128;2022-10-16T13:53:32;100644.84;;;20.67
24740;BMP280;45234;48.148;17.128;2022-10-16T13:56:02;100643.88;;;20.73
24740;BMP280;45234;48.148;17.128;2022-10-16T13:58:29;100647.38;;;20.79
24740;BMP280;45234;48.148;17.128;2022-10-16T14:00:59;100644.75;;;20.84
24740;BMP280;45234;48.148;17.128;2022-10-16T14:03:28;100657.25;;;20.94
24740;BMP280;45234;48.148;17.128;2022-10-16T14:06:00;100649.38;;;20.99
24740;BMP280;45234;48.148;17.128;2022-10-16T14:08:28;100651.28;;;21.03
24740;BMP280;45234;48.148;17.128;2022-10-16T14:10:57;100656.03;;;21.06
24740;BMP280;45234;48.148;17.128;2022-10-16T14:15:56;100655.25;;;21.06
24740;BMP280;45234;48.148;17.128;2022-10-16T14:18:25;100658.91;;;21.05
24740;BMP280;45234;48.148;17.128;2022-10-16T14:21:02;100657.63;;;21.07
24740;BMP280;45234;48.148;17.128;2022-10-16T14:23:31;100657.09;;;21.05
24740;BMP280;45234;48.148;17.128;2022-10-16T14:26:40;100659.72;;;21.05
24740;BMP280;45234;48.148;17.128;2022-10-16T14:29:13;100664.00;;;21.11
24740;BMP280;45234;48.148;17.128;2022-10-16T14:31:41;100652.94;;;21.14
24740;BMP280;45234;48.148;17.128;2022-10-16T14:36:51;100659.28;;;21.18
24740;BMP280;45234;48.148;17.128;2022-10-16T14:39:19;100652.72;;;21.21
24740;BMP280;45234;48.148;17.128;2022-10-16T14:41:54;100653.00;;;21.24
24740;BMP280;45234;48.148;17.128;2022-10-16T14:44:27;100656.22;;;21.27
24740;BMP280;45234;48.148;17.128;2022-10-16T14:46:55;100657.00;;;21.27
24740;BMP280;45234;48.148;17.128;2022-10-16T14:49:22;100650.94;;;21.27
24740;BMP280;45234;48.148;17.128;2022-10-16T14:51:51;100658.06;;;21.31
24740;BMP280;45234;48.148;17.128;2022-10-16T14:54:19;100659.91;;;21.31
24740;BMP280;45234;48.148;17.128;2022-10-16T14:56:53;100659.72;;;21.32
24740;BMP280;45234;48.148;17.128;2022-10-16T15:01:56;100663.66;;;21.35
24740;BMP280;45234;48.148;17.128;2022-10-16T15:04:24;100656.78;;;21.34
24740;BMP280;45234;48.148;17.128;2022-10-16T15:07:16;100663.66;;;21.35
24740;BMP280;45234;48.148;17.128;2022-10-16T15:09:43;100657.28;;;21.31
24740;BMP280;45234;48.148;17.128;2022-10-16T15:12:15;100663.34;;;21.31
24740;BMP280;45234;48.148;17.128;2022-10-16T15:14:46;100664.63;;;21.29
24740;BMP280;45234;48.148;17.128;2022-10-16T15:17:14;100670.19;;;21.27
24740;BMP280;45234;48.148;17.128;2022-10-16T15:19:45;100677.81;;;21.23
24740;BMP280;45234;48.148;17.128;2022-10-16T15:22:16;100675.72;;;21.26
24740;BMP280;45234;48.148;17.128;2022-10-16T15:24:44;100672.56;;;21.23
24740;BMP280;45234;48.148;17.128;2022-10-16T15:27:12;100678.63;;;21.24
24740;BMP280;45234;48.148;17.128;2022-10-16T15:29:39;100679.06;;;21.21
24740;BMP280;45234;48.148;17.128;2022-10-16T15:32:08;100689.91;;;21.19
24740;BMP280;45234;48.148;17.128;2022-10-16T15:34:36;100694.63;;;21.17
24740;BMP280;45234;48.148;17.128;2022-10-16T15:37:03;100688.03;;;21.15
24740;BMP280;45234;48.148;17.128;2022-10-16T15:39:32;100693.53;;;21.13
24740;BMP280;45234;48.148;17.128;2022-10-16T15:42:07;100696.09;;;21.08
24740;BMP280;45234;48.148;17.128;2022-10-16T15:44:35;100702.41;;;21.02
24740;BMP280;45234;48.148;17.128;2022-10-16T15:47:29;100708.66;;;20.96
24740;BMP280;45234;48.148;17.128;2022-10-16T15:49:58;100709.66;;;20.90
24740;BMP280;45234;48.148;17.128;2022-10-16T15:52:25;100712.75;;;20.82
24740;BMP280;45234;48.148;17.128;2022-10-16T15:54:53;100712.63;;;20.72
24740;BMP280;45234;48.148;17.128;2022-10-16T15:57:21;100719.69;;;20.66
24740;BMP280;45234;48.148;17.128;2022-10-16T15:59:48;100711.97;;;20.60
24740;BMP280;45234;48.148;17.128;2022-10-16T16:02:16;100724.53;;;20.53